鹿児島空港の過去48時間の天気

鹿児島空港 (Kagoshima)

現在時刻: 1/21 13:12 JST (1/21 04:12 UTC) 以下の時間は現地時間です。

過去48時間のMETAR気象情報
時間 風向 風速(m/s) 視程 気温(℃) 湿度(%) 気圧(hPa) 天気現象
21 12:00 3 10km以上 11 40 1025
21 11:00 北北西 4 10km以上 10 46 1026
21 10:00 北北西 5 10km以上 8 57 1026
21 09:00 北北西 4 10km以上 6 70 1026
21 08:00 西北西 4 10km以上 3 81 1025
21 07:00 不定 1 10km以上 1 86 1024
21 06:00 北西 4 10km以上 0 93 1024
20 21:00 北北西 5 8000m 7 76 1021
20 20:00 5 8000m 6 81 1021
20 19:00 北北西 3 8000m 6 81 1020
20 18:00 北北西 3 8000m 6 81 1020
20 17:00 北西 6 8000m 8 71 1019
20 16:00 北北西 8 8000m 9 62 1019
20 15:00 北西 6 8000m 10 58 1018
20 14:00 北北西 7 7000m 11 58 1018
20 13:00 5 6000m 10 62 1019
20 12:00 7 8000m 10 62 1020
20 11:00 6 8000m 10 62 1020
20 10:00 北北西 6 7000m 8 76 1020
20 09:00 4 7000m 8 76 1019
20 08:00 2 7000m 6 87 1019
20 07:00 北西 4 7000m 6 87 1019
20 06:00 西北西 3 7000m 5 87 1018
RJFK 210300Z 01006KT 320V040 CAVOK 11/M02 Q1025 RMK A3028 VOLCANIC ASH CLOUD S
RJFK 210200Z 34008KT 310V010 9999 FEW030 10/M01 Q1026 RMK 1CU030 A3030 VOLCANIC ASH CLOUD S
RJFK 210100Z 34009KT 320V020 9999 FEW030 08/00 Q1026 RMK 1CU030 A3030 VOLCANIC ASH CLOUD S
RJFK 210000Z 33008KT 9999 FEW030 06/01 Q1026 RMK 1CU030 A3031 VOLCANIC ASH CLOUD S
RJFK 202300Z 30007KT 9999 FEW030 03/00 Q1025 RMK 1CU030 A3029 VOLCANIC ASH CLOUD S
RJFK 202200Z VRB01KT 9999 FEW030 01/M01 Q1024 RMK 1CU030 A3026 VOLCANIC ASH CLOUD S
RJFK 202100Z 32007KT 9999 FEW030 00/M01 Q1024 RMK 1CU030 A3024
RJFK 201200Z 34009KT 8000 FEW030 BKN045 07/03 Q1021 RMK 1CU030 7SC045 A3017
RJFK 201100Z 35009KT 8000 FEW030 BKN050 06/03 Q1021 RMK 1CU030 6SC050 A3016
RJFK 201000Z 33006KT 8000 SCT050 06/03 Q1020 RMK 3SC050 A3014
RJFK 200900Z 34006KT 8000 SCT045 06/03 Q1020 RMK 3CU045 A3013
RJFK 200800Z 32011KT 8000 FEW030 BKN040 08/03 Q1019 RMK 1CU030 5CU040 A3011
RJFK 200700Z 33015KT 8000 FEW030 BKN050 09/02 Q1019 RMK 1CU030 5SC050 A3010
RJFK 200600Z 32011KT 8000 FEW030 SCT050 10/02 Q1018 RMK 1CU030 4SC050 A3008
RJFK 200500Z 33014KT 7000 FEW030 SCT040 11/03 Q1018 RMK 1CU030 3CU040 A3009
RJFK 200400Z 36010KT 6000 FEW030 SCT050 10/03 Q1019 RMK 1CU030 3SC050 A3010
RJFK 200300Z 35013KT 8000 FEW020 SCT030 BKN060 10/03 Q1020 RMK 1CU020 3CU030 7SC060 A3012
RJFK 200200Z 35011KT 8000 FEW030 BKN060 10/03 Q1020 RMK 1CU030 6SC060 A3012
RJFK 200100Z 34012KT 7000 FEW030 BKN050 08/04 Q1020 RMK 1CU030 7SC050 A3013
RJFK 200000Z 35008KT 7000 FEW030 BKN050 08/04 Q1019 RMK 1CU030 7SC050 A3011
RJFK 192300Z 35004KT 7000 FEW030 BKN050 06/04 Q1019 RMK 1CU030 5SC050 A3010
RJFK 192200Z 32007KT 7000 FEW030 BKN050 06/04 Q1019 RMK 1CU030 7SC050 A3010
RJFK 192100Z 29005KT 7000 FEW030 SCT060 05/03 Q1018 RMK 1CU030 3SC060 A3008